< Typhoon 198408 1984 Season Typhoon 198410 >
Typhoon 198409 (GERALD)
General InformationTrack Information on Google MapsDetailed Wind InformationList of All Images || Disaster Info.ResourceGoogle EarthGE AnimationAtom FeedGeoJSON
Detalied Best Track (Time Zone = UTC)
Year Month Day Hour Lat. Long. Pressure (hPa) Wind (kt) Class Image Chart
1984 8 15 00 19.5 118.5 996 0 2 Image Chart
1984 8 15 06 19.7 118.5 996 0 2 Image Chart
1984 8 15 12 19.8 118.5 994 0 2 Image Chart
1984 8 15 18 20.0 118.4 994 0 2 Image Chart
1984 8 16 00 20.1 118.3 990 40 3 Image Chart
1984 8 16 06 20.2 117.9 990 40 3 Image Chart
1984 8 16 12 19.4 116.8 985 40 3 Image Chart
1984 8 16 18 18.9 116.4 985 40 3 Image Chart
1984 8 17 00 18.5 116.2 980 50 4 Image Chart
1984 8 17 06 18.3 116.1 980 55 4 Image Chart
1984 8 17 12 18.3 115.8 980 55 4 Image Chart
1984 8 17 18 18.3 115.2 980 50 4 Image Chart
1984 8 18 00 18.5 114.7 980 50 4 Image Chart
1984 8 18 06 18.7 114.1 980 50 4 Image Chart
1984 8 18 12 18.8 113.3 985 50 4 Image Chart
1984 8 18 18 18.9 112.9 985 50 4 Image Chart
1984 8 19 00 18.5 112.4 985 50 4 Image Chart
1984 8 19 06 18.7 112.2 985 50 4 Image Chart
1984 8 19 12 19.0 112.2 985 50 4 Image Chart
1984 8 19 18 19.2 112.2 985 50 4 Image Chart
1984 8 20 00 19.5 112.3 985 50 4 Image Chart
1984 8 20 06 20.0 113.0 985 50 4 Image Chart
1984 8 20 12 20.5 113.5 985 50 4 Image Chart
1984 8 20 18 21.2 114.0 985 50 4 Image Chart
1984 8 21 00 21.9 114.4 990 40 3 Image Chart
1984 8 21 06 22.8 114.8 992 35 3 Image Chart
1984 8 21 12 24.0 115.1 996 0 2 Image Chart
1984 8 21 18 25.2 115.2 1000 0 2 Image Chart
1984 8 22 00 27.6 115.8 1000 0 2 Image Chart
1984 8 22 06 29.7 118.3 1000 0 2 Image Chart
1984 8 22 12 30.5 119.4 1000 0 6 Image Chart
1984 8 22 18 30.9 120.5 1000 0 6 Image Chart
1984 8 23 00 31.6 121.9 1002 0 6 Image Chart
1984 8 23 06 32.4 122.4 1002 0 6 Image Chart
1984 8 23 12 33.2 123.1 1004 0 6 Image Chart
1984 8 23 18 34.1 124.1 1004 0 6 Image Chart
1984 8 24 00 35.0 125.0 1004 0 6 Image Chart
1984 8 24 06 36.3 126.7 1004 0 6 Image Chart
1984 8 24 12 37.0 128.0 1004 0 6 Image Chart
Japan Meteorological Agency Best Track Data | Correction Date : 1992-10-21
< Typhoon 198408 1984 Season Typhoon 198410 >

Help